Time;durP1;ratioP1;P1;durP2;ratioP2;P2;SDS_P1;SDS_P2;PMS_P1;PMS_P2;Temp;Humidity;BMP_temperature;BMP_pressure;BME280_temperature;BME280_humidity;BME280_pressure;Samples;Min_cycle;Max_cycle;Signal;HPM_P1;HPM_P2
2022/07/26 00:01:54;;;;;;;5.03;1.70;;;;;;;;;;5031644;28;20052;-61
2022/07/26 00:04:19;;;;;;;5.88;1.90;;;;;;;;;;5022560;28;20032;-62
2022/07/26 00:06:44;;;;;;;2.47;1.50;;;;;;;;;;5031090;28;20462;-61
2022/07/26 00:09:10;;;;;;;6.20;1.92;;;;;;;;;;5031292;28;20106;-61
2022/07/26 00:11:35;;;;;;;6.13;1.80;;;;;;;;;;5030345;28;20048;-61
2022/07/26 00:14:03;;;;;;;4.53;1.73;;;;;;;;;;5031671;28;20112;-60
2022/07/26 00:16:29;;;;;;;5.03;1.83;;;;;;;;;;5030021;28;20041;-61
2022/07/26 00:18:55;;;;;;;3.90;2.05;;;;;;;;;;5031487;28;20045;-61
2022/07/26 00:21:20;;;;;;;3.92;1.98;;;;;;;;;;5029384;28;20036;-61
2022/07/26 00:23:46;;;;;;;5.47;1.80;;;;;;;;;;5046525;28;20029;-61
2022/07/26 00:26:12;;;;;;;5.13;1.95;;;;;;;;;;5032425;28;20109;-62
2022/07/26 00:28:38;;;;;;;3.78;1.70;;;;;;;;;;5032691;28;20485;-62
2022/07/26 00:31:03;;;;;;;4.97;2.10;;;;;;;;;;5030945;28;20123;-61
2022/07/26 00:33:29;;;;;;;3.63;1.80;;;;;;;;;;5037350;28;20033;-62
2022/07/26 00:35:54;;;;;;;4.68;1.85;;;;;;;;;;5041084;28;20025;-62
2022/07/26 00:38:20;;;;;;;5.13;2.00;;;;;;;;;;5030181;28;20573;-62
2022/07/26 00:40:45;;;;;;;6.18;1.92;;;;;;;;;;5044361;28;20029;-61
2022/07/26 00:43:11;;;;;;;3.97;1.83;;;;;;;;;;5045142;28;20043;-61
2022/07/26 00:45:36;;;;;;;3.97;1.83;;;;;;;;;;5040307;28;20548;-61
2022/07/26 00:48:02;;;;;;;5.05;2.08;;;;;;;;;;5042637;28;20054;-61
2022/07/26 00:50:27;;;;;;;5.47;2.13;;;;;;;;;;5030733;28;20033;-62
2022/07/26 00:52:53;;;;;;;4.60;2.00;;;;;;;;;;5039892;28;20029;-61
2022/07/26 00:55:19;;;;;;;4.63;2.05;;;;;;;;;;5031832;28;20034;-61
2022/07/26 00:57:45;;;;;;;5.90;2.00;;;;;;;;;;5030319;28;20476;-61
2022/07/26 01:00:17;;;;;;;3.97;1.70;;;;;;;;;;5049976;28;20063;-61
2022/07/26 01:02:43;;;;;;;5.15;1.77;;;;;;;;;;5047337;28;20116;-61
2022/07/26 01:05:08;;;;;;;3.67;2.00;;;;;;;;;;5039515;28;20120;-61
2022/07/26 01:07:36;;;;;;;4.82;1.90;;;;;;;;;;5043066;28;20088;-61
2022/07/26 01:10:09;;;;;;;5.70;1.88;;;;;;;;;;5033841;28;20052;-61
2022/07/26 01:12:35;;;;;;;4.30;2.00;;;;;;;;;;5037781;28;20069;-61
2022/07/26 01:15:00;;;;;;;8.77;2.20;;;;;;;;;;5048771;28;20384;-61
2022/07/26 01:17:25;;;;;;;4.65;2.25;;;;;;;;;;5029750;28;20026;-61
2022/07/26 01:19:51;;;;;;;6.82;2.25;;;;;;;;;;5030228;28;20454;-60
2022/07/26 01:22:16;;;;;;;5.65;2.08;;;;;;;;;;5035262;28;20037;-61
2022/07/26 01:24:42;;;;;;;7.28;2.13;;;;;;;;;;5025813;28;20088;-60
2022/07/26 01:27:07;;;;;;;5.47;1.90;;;;;;;;;;5030036;28;20454;-60
2022/07/26 01:29:32;;;;;;;6.38;1.92;;;;;;;;;;5032283;28;20465;-60
2022/07/26 01:31:58;;;;;;;4.60;1.80;;;;;;;;;;5043015;28;20032;-60
2022/07/26 01:34:23;;;;;;;4.10;1.83;;;;;;;;;;5039768;28;20116;-61
2022/07/26 01:36:49;;;;;;;7.40;2.08;;;;;;;;;;5049771;28;20112;-60
2022/07/26 01:39:15;;;;;;;18.40;1.90;;;;;;;;;;5050796;28;20059;-60
2022/07/26 01:41:40;;;;;;;6.45;2.13;;;;;;;;;;5038145;28;20087;-60
2022/07/26 01:44:06;;;;;;;5.63;2.28;;;;;;;;;;5030369;28;20175;-60
2022/07/26 01:46:32;;;;;;;6.85;2.22;;;;;;;;;;5028813;28;20454;-60
2022/07/26 01:49:00;;;;;;;5.30;2.17;;;;;;;;;;5030984;28;20493;-60
2022/07/26 01:51:26;;;;;;;4.90;2.03;;;;;;;;;;5014020;28;20155;-61
2022/07/26 01:53:51;;;;;;;6.65;1.95;;;;;;;;;;5049994;28;20127;-60
2022/07/26 01:56:16;;;;;;;8.02;2.03;;;;;;;;;;5038454;28;20447;-60
2022/07/26 01:58:42;;;;;;;8.35;2.22;;;;;;;;;;5047373;28;20547;-60
2022/07/26 02:01:07;;;;;;;8.40;2.22;;;;;;;;;;5048079;28;20052;-61
2022/07/26 02:03:33;;;;;;;4.88;2.40;;;;;;;;;;5028428;28;20045;-62
2022/07/26 02:05:59;;;;;;;9.20;2.13;;;;;;;;;;5047963;28;20061;-62
2022/07/26 02:08:25;;;;;;;5.50;2.10;;;;;;;;;;5033721;28;20160;-61
2022/07/26 02:10:59;;;;;;;6.10;2.00;;;;;;;;;;5011355;28;20044;-61
2022/07/26 02:13:33;;;;;;;5.97;2.33;;;;;;;;;;5031009;28;20118;-61
2022/07/26 02:15:59;;;;;;;7.60;2.58;;;;;;;;;;5050371;28;20025;-61
2022/07/26 02:18:27;;;;;;;8.32;2.13;;;;;;;;;;5035338;28;20033;-61
2022/07/26 02:20:52;;;;;;;8.98;2.85;;;;;;;;;;5037102;28;20033;-61
2022/07/26 02:23:18;;;;;;;8.38;2.50;;;;;;;;;;5047200;28;20090;-60
2022/07/26 02:25:43;;;;;;;8.30;2.50;;;;;;;;;;5045792;28;20506;-61
2022/07/26 02:28:09;;;;;;;7.00;2.63;;;;;;;;;;5038594;28;20040;-61
2022/07/26 02:30:34;;;;;;;7.30;2.58;;;;;;;;;;5032763;28;20039;-61
2022/07/26 02:33:00;;;;;;;9.30;2.80;;;;;;;;;;5034622;28;20121;-61
2022/07/26 02:35:26;;;;;;;12.75;3.22;;;;;;;;;;5044854;28;20029;-61
2022/07/26 02:37:51;;;;;;;8.38;2.67;;;;;;;;;;5045684;28;20037;-60
2022/07/26 02:40:16;;;;;;;9.52;3.08;;;;;;;;;;5014907;28;20048;-61
2022/07/26 02:42:42;;;;;;;9.00;2.70;;;;;;;;;;5032418;28;20646;-60
2022/07/26 02:45:08;;;;;;;9.38;3.10;;;;;;;;;;5044362;28;20029;-60
2022/07/26 02:47:33;;;;;;;9.80;2.83;;;;;;;;;;5051229;28;20048;-61
2022/07/26 02:49:58;;;;;;;10.60;2.92;;;;;;;;;;5032951;28;20087;-60
2022/07/26 02:52:24;;;;;;;11.73;2.92;;;;;;;;;;5032269;28;20096;-61
2022/07/26 02:54:49;;;;;;;8.90;3.10;;;;;;;;;;5032917;28;20025;-61
2022/07/26 02:57:15;;;;;;;8.25;2.80;;;;;;;;;;5042931;28;20104;-61
2022/07/26 02:59:40;;;;;;;9.20;3.20;;;;;;;;;;5036547;28;20824;-60
2022/07/26 03:02:06;;;;;;;13.43;2.80;;;;;;;;;;5032619;28;20042;-60
2022/07/26 03:04:31;;;;;;;11.82;3.20;;;;;;;;;;5030969;28;20103;-60
2022/07/26 03:06:57;;;;;;;8.75;2.90;;;;;;;;;;5047735;28;20037;-60
2022/07/26 03:09:22;;;;;;;10.75;3.15;;;;;;;;;;5035802;28;20060;-61
2022/07/26 03:11:48;;;;;;;8.48;3.25;;;;;;;;;;5032051;28;20025;-60
2022/07/26 03:14:13;;;;;;;9.35;3.10;;;;;;;;;;5032536;28;20077;-60
2022/07/26 03:16:39;;;;;;;7.70;2.83;;;;;;;;;;5031854;28;20033;-60
2022/07/26 03:19:05;;;;;;;9.02;3.20;;;;;;;;;;5052537;28;20120;-60
2022/07/26 03:21:30;;;;;;;8.90;3.00;;;;;;;;;;5048957;28;20083;-60
2022/07/26 03:23:55;;;;;;;9.85;3.20;;;;;;;;;;5045195;28;20029;-60
2022/07/26 03:26:21;;;;;;;9.02;3.35;;;;;;;;;;5036477;28;20030;-61
2022/07/26 03:28:46;;;;;;;7.00;3.05;;;;;;;;;;5036425;28;20058;-61
2022/07/26 03:31:12;;;;;;;11.05;2.90;;;;;;;;;;5047748;28;20037;-62
2022/07/26 03:33:39;;;;;;;9.75;3.30;;;;;;;;;;5051769;28;20091;-61
2022/07/26 03:36:05;;;;;;;9.93;3.10;;;;;;;;;;5045271;28;20104;-61
2022/07/26 03:38:30;;;;;;;11.55;3.22;;;;;;;;;;5049573;28;20086;-61
2022/07/26 03:40:56;;;;;;;6.40;2.90;;;;;;;;;;5052548;28;20033;-61
2022/07/26 03:43:21;;;;;;;9.50;3.22;;;;;;;;;;5051746;28;20029;-61
2022/07/26 03:45:47;;;;;;;13.50;3.20;;;;;;;;;;5052031;28;20025;-61
2022/07/26 03:48:12;;;;;;;9.98;3.00;;;;;;;;;;5041262;28;20145;-61
2022/07/26 03:50:38;;;;;;;9.25;3.10;;;;;;;;;;5031889;28;20112;-61
2022/07/26 03:53:03;;;;;;;8.07;2.78;;;;;;;;;;5032554;28;20041;-62
2022/07/26 03:58:13;;;;;;;11.55;3.00;;;;;;;;;;5032733;28;20397;-61
2022/07/26 04:00:38;;;;;;;13.75;3.60;;;;;;;;;;5031900;28;20022;-61
2022/07/26 04:03:04;;;;;;;8.55;2.83;;;;;;;;;;5032599;28;20073;-61
2022/07/26 04:05:29;;;;;;;9.05;3.35;;;;;;;;;;5032031;28;20455;-61
2022/07/26 04:07:55;;;;;;;10.15;3.10;;;;;;;;;;5033580;28;20033;-61
2022/07/26 04:10:21;;;;;;;9.95;3.70;;;;;;;;;;5051593;28;20130;-61
2022/07/26 04:12:48;;;;;;;14.02;3.75;;;;;;;;;;5051528;28;20456;-61
2022/07/26 04:15:15;;;;;;;11.23;3.97;;;;;;;;;;5043590;28;20496;-61
2022/07/26 04:17:41;;;;;;;10.23;3.90;;;;;;;;;;5051419;28;20040;-62
2022/07/26 04:20:08;;;;;;;13.30;4.63;;;;;;;;;;5052036;28;20033;-62
2022/07/26 04:22:34;;;;;;;14.25;4.45;;;;;;;;;;5048615;28;20040;-62
2022/07/26 04:25:00;;;;;;;11.68;4.47;;;;;;;;;;5038155;28;20029;-61
2022/07/26 04:27:26;;;;;;;13.30;4.82;;;;;;;;;;5049804;28;20188;-62
2022/07/26 04:29:51;;;;;;;12.00;4.68;;;;;;;;;;5034711;28;20051;-63
2022/07/26 04:32:17;;;;;;;13.07;5.57;;;;;;;;;;5036690;28;20112;-62
2022/07/26 04:34:42;;;;;;;13.80;5.50;;;;;;;;;;5050703;28;20162;-62
2022/07/26 04:37:07;;;;;;;14.90;6.00;;;;;;;;;;5047915;28;20028;-62
2022/07/26 04:39:33;;;;;;;14.65;5.80;;;;;;;;;;5033800;28;20040;-62
2022/07/26 04:41:58;;;;;;;14.98;6.03;;;;;;;;;;5032110;28;20030;-61
2022/07/26 04:44:24;;;;;;;17.42;6.53;;;;;;;;;;5032106;28;20033;-61
2022/07/26 04:46:49;;;;;;;16.75;6.35;;;;;;;;;;5043260;28;20064;-61
2022/07/26 04:49:14;;;;;;;16.52;6.40;;;;;;;;;;5048202;28;20723;-61
2022/07/26 04:51:40;;;;;;;16.48;6.75;;;;;;;;;;5013014;28;20460;-61
2022/07/26 04:54:05;;;;;;;22.17;7.07;;;;;;;;;;5013907;28;20045;-61
2022/07/26 04:56:31;;;;;;;17.95;6.88;;;;;;;;;;5034052;28;20033;-62
2022/07/26 04:58:56;;;;;;;23.35;7.30;;;;;;;;;;5051819;28;20087;-62
2022/07/26 05:01:21;;;;;;;17.48;7.45;;;;;;;;;;5051795;28;20025;-61
2022/07/26 05:03:47;;;;;;;20.42;7.53;;;;;;;;;;5041071;28;20147;-61
2022/07/26 05:06:12;;;;;;;15.60;6.75;;;;;;;;;;5032197;28;20465;-62
2022/07/26 05:08:38;;;;;;;19.48;7.35;;;;;;;;;;5030488;28;20026;-61
2022/07/26 05:11:03;;;;;;;21.40;7.32;;;;;;;;;;5020913;28;20044;-62
2022/07/26 05:13:29;;;;;;;17.65;7.78;;;;;;;;;;5031496;28;20091;-62
2022/07/26 05:15:54;;;;;;;17.85;7.95;;;;;;;;;;5034413;28;20528;-62
2022/07/26 05:18:20;;;;;;;19.00;7.75;;;;;;;;;;5049815;28;20032;-62
2022/07/26 05:20:45;;;;;;;16.05;8.00;;;;;;;;;;5049541;28;20474;-61
2022/07/26 05:23:11;;;;;;;18.35;8.23;;;;;;;;;;5031771;28;20110;-63
2022/07/26 05:25:37;;;;;;;18.50;8.20;;;;;;;;;;5030912;28;20029;-63
2022/07/26 05:28:03;;;;;;;18.52;8.15;;;;;;;;;;5031280;28;20029;-62
2022/07/26 05:30:28;;;;;;;17.38;7.60;;;;;;;;;;5031683;28;20029;-62
2022/07/26 05:32:54;;;;;;;17.58;7.57;;;;;;;;;;5031310;28;20055;-62
2022/07/26 05:35:19;;;;;;;19.77;7.80;;;;;;;;;;5032359;28;20037;-62
2022/07/26 05:37:45;;;;;;;19.08;7.78;;;;;;;;;;5044761;28;20029;-62
2022/07/26 05:40:12;;;;;;;17.10;7.68;;;;;;;;;;5046799;28;20137;-62
2022/07/26 05:42:37;;;;;;;12.82;7.20;;;;;;;;;;5043548;28;20041;-62
2022/07/26 05:45:04;;;;;;;21.95;8.32;;;;;;;;;;5051554;28;20086;-61
2022/07/26 05:47:30;;;;;;;16.52;7.72;;;;;;;;;;5051192;28;20437;-62
2022/07/26 05:49:55;;;;;;;18.33;7.10;;;;;;;;;;5032663;28;20033;-61
2022/07/26 05:52:21;;;;;;;15.02;6.55;;;;;;;;;;5051465;28;20025;-62
2022/07/26 05:54:47;;;;;;;19.27;6.90;;;;;;;;;;5034663;28;20056;-62
2022/07/26 05:57:12;;;;;;;12.93;6.95;;;;;;;;;;5031045;28;20045;-61
2022/07/26 05:59:38;;;;;;;14.80;6.85;;;;;;;;;;5030630;28;20029;-61
2022/07/26 06:02:03;;;;;;;12.75;6.35;;;;;;;;;;5031750;28;20034;-62
2022/07/26 06:04:29;;;;;;;16.02;6.13;;;;;;;;;;5035217;28;20473;-61
2022/07/26 06:06:54;;;;;;;14.85;6.30;;;;;;;;;;5016811;28;20033;-62
2022/07/26 06:09:20;;;;;;;18.80;6.28;;;;;;;;;;5034909;28;20030;-62
2022/07/26 06:11:46;;;;;;;14.15;6.70;;;;;;;;;;5035967;28;20029;-62
2022/07/26 06:14:11;;;;;;;18.63;7.03;;;;;;;;;;5053128;28;20115;-61
2022/07/26 06:16:37;;;;;;;17.27;6.70;;;;;;;;;;5054210;28;20082;-61
2022/07/26 06:19:02;;;;;;;18.10;7.38;;;;;;;;;;5053032;28;20064;-62
2022/07/26 06:21:28;;;;;;;20.40;6.65;;;;;;;;;;5040009;28;20029;-61
2022/07/26 06:23:53;;;;;;;16.83;6.90;;;;;;;;;;5028797;28;20044;-62
2022/07/26 06:26:19;;;;;;;12.05;6.70;;;;;;;;;;5035152;28;20029;-61
2022/07/26 06:28:44;;;;;;;11.25;6.68;;;;;;;;;;5034003;28;20040;-62
2022/07/26 06:31:09;;;;;;;16.17;6.88;;;;;;;;;;5034325;28;20398;-61
2022/07/26 06:33:35;;;;;;;14.23;6.35;;;;;;;;;;5034000;28;20029;-62
2022/07/26 06:36:01;;;;;;;15.95;7.53;;;;;;;;;;5034355;28;20021;-61
2022/07/26 06:38:26;;;;;;;14.23;6.50;;;;;;;;;;5041032;28;20044;-61
2022/07/26 06:40:52;;;;;;;14.75;6.55;;;;;;;;;;5053833;28;20037;-62
2022/07/26 06:43:17;;;;;;;13.68;6.78;;;;;;;;;;5046427;28;20144;-64
2022/07/26 06:45:43;;;;;;;17.33;7.30;;;;;;;;;;5049225;28;20068;-62
2022/07/26 06:48:08;;;;;;;14.10;7.15;;;;;;;;;;5047546;28;20031;-61
2022/07/26 06:50:34;;;;;;;16.65;8.07;;;;;;;;;;5036171;28;20035;-61
2022/07/26 06:52:59;;;;;;;15.32;7.60;;;;;;;;;;5051645;28;20436;-61
2022/07/26 06:55:25;;;;;;;22.15;8.20;;;;;;;;;;5053007;28;20037;-61
2022/07/26 06:57:50;;;;;;;19.13;8.07;;;;;;;;;;5053567;28;20064;-62
2022/07/26 07:00:16;;;;;;;21.77;8.35;;;;;;;;;;5053699;28;20084;-60
2022/07/26 07:02:42;;;;;;;19.73;8.82;;;;;;;;;;5053096;28;20033;-61
2022/07/26 07:05:07;;;;;;;20.60;9.20;;;;;;;;;;5033733;28;20029;-61
2022/07/26 07:07:35;;;;;;;15.40;8.98;;;;;;;;;;5034127;28;20039;-60
2022/07/26 07:10:01;;;;;;;17.52;9.35;;;;;;;;;;5033421;28;20489;-61
2022/07/26 07:12:26;;;;;;;17.15;8.80;;;;;;;;;;5033470;28;20065;-60
2022/07/26 07:14:51;;;;;;;14.52;8.55;;;;;;;;;;5037702;28;20557;-60
2022/07/26 07:17:20;;;;;;;19.85;10.43;;;;;;;;;;5033501;28;20029;-60
2022/07/26 07:19:46;;;;;;;18.67;8.95;;;;;;;;;;5033189;28;20053;-61
2022/07/26 07:22:11;;;;;;;19.38;9.90;;;;;;;;;;5047875;28;20465;-61
2022/07/26 07:24:37;;;;;;;18.48;12.68;;;;;;;;;;5053002;28;20056;-62
2022/07/26 07:27:03;;;;;;;19.95;13.45;;;;;;;;;;5032098;28;20034;-61
2022/07/26 07:29:28;;;;;;;18.23;12.65;;;;;;;;;;5033732;28;20435;-61
2022/07/26 07:31:54;;;;;;;25.10;13.80;;;;;;;;;;5032829;28;20037;-60
2022/07/26 07:34:21;;;;;;;22.63;12.90;;;;;;;;;;5040997;28;20466;-59
2022/07/26 07:36:47;;;;;;;18.98;13.57;;;;;;;;;;5032606;28;20470;-60
2022/07/26 07:39:13;;;;;;;23.10;12.27;;;;;;;;;;5032791;28;20081;-60
2022/07/26 07:41:39;;;;;;;14.73;11.68;;;;;;;;;;5032252;28;20442;-61
2022/07/26 07:44:05;;;;;;;17.17;10.52;;;;;;;;;;5038380;28;20132;-60
2022/07/26 07:46:30;;;;;;;17.10;9.70;;;;;;;;;;5049988;28;20025;-61
2022/07/26 07:48:58;;;;;;;20.02;9.82;;;;;;;;;;5049091;28;20033;-60
2022/07/26 07:51:24;;;;;;;13.10;8.38;;;;;;;;;;5033030;28;20029;-60
2022/07/26 07:53:49;;;;;;;16.60;7.93;;;;;;;;;;5041773;28;20033;-60
2022/07/26 07:56:15;;;;;;;13.93;8.57;;;;;;;;;;5034958;28;20056;-60
2022/07/26 07:58:40;;;;;;;16.05;7.60;;;;;;;;;;5052240;28;20433;-61
2022/07/26 08:01:05;;;;;;;12.88;7.13;;;;;;;;;;5038622;28;20029;-60
2022/07/26 08:03:31;;;;;;;15.05;6.97;;;;;;;;;;5041567;28;20422;-61
2022/07/26 08:05:57;;;;;;;11.98;6.70;;;;;;;;;;5031585;28;20037;-61
2022/07/26 08:08:22;;;;;;;17.40;7.30;;;;;;;;;;5014812;28;20117;-61
2022/07/26 08:10:48;;;;;;;9.45;7.00;;;;;;;;;;5031948;28;20029;-61
2022/07/26 08:13:13;;;;;;;9.82;6.35;;;;;;;;;;5032216;28;20029;-61
2022/07/26 08:15:39;;;;;;;10.63;6.90;;;;;;;;;;5031864;28;20037;-61
2022/07/26 08:18:04;;;;;;;10.43;6.50;;;;;;;;;;5045784;28;20040;-61
2022/07/26 08:20:29;;;;;;;10.02;6.00;;;;;;;;;;5050125;28;20029;-61
2022/07/26 08:22:55;;;;;;;9.15;5.18;;;;;;;;;;5045937;28;20036;-62
2022/07/26 08:25:20;;;;;;;10.57;5.07;;;;;;;;;;5051697;28;20044;-61
2022/07/26 08:27:46;;;;;;;12.32;4.82;;;;;;;;;;5052122;28;20060;-61
2022/07/26 08:30:11;;;;;;;8.90;4.88;;;;;;;;;;5050946;28;20033;-60
2022/07/26 08:32:37;;;;;;;10.15;4.65;;;;;;;;;;5041594;28;20079;-60
2022/07/26 08:35:03;;;;;;;10.23;4.32;;;;;;;;;;5051894;28;20029;-60
2022/07/26 08:37:29;;;;;;;8.38;4.10;;;;;;;;;;5052964;28;20036;-60
2022/07/26 08:39:54;;;;;;;8.45;4.03;;;;;;;;;;5040669;28;20041;-60
2022/07/26 08:42:23;;;;;;;8.75;3.72;;;;;;;;;;5032713;28;20436;-62
2022/07/26 08:44:50;;;;;;;7.10;4.13;;;;;;;;;;5032100;28;20036;-61
2022/07/26 08:47:21;;;;;;;8.20;4.22;;;;;;;;;;5041402;28;20535;-62
2022/07/26 08:49:46;;;;;;;11.57;4.28;;;;;;;;;;5048112;28;20037;-62
2022/07/26 08:52:14;;;;;;;8.75;3.95;;;;;;;;;;5052496;28;20027;-61
2022/07/26 08:54:48;;;;;;;9.18;3.20;;;;;;;;;;5049592;28;20064;-61
2022/07/26 08:57:13;;;;;;;6.85;2.85;;;;;;;;;;5029035;28;20080;-61
2022/07/26 08:59:39;;;;;;;5.50;2.70;;;;;;;;;;5032521;28;20159;-61
2022/07/26 09:02:07;;;;;;;6.20;2.90;;;;;;;;;;5051005;28;20032;-61
2022/07/26 09:04:40;;;;;;;7.20;2.83;;;;;;;;;;5052193;28;20033;-61
2022/07/26 09:07:16;;;;;;;9.40;3.25;;;;;;;;;;5051994;28;20094;-61
2022/07/26 09:09:58;;;;;;;7.70;2.90;;;;;;;;;;5052706;28;20033;-62
2022/07/26 09:12:24;;;;;;;8.32;3.20;;;;;;;;;;5050222;28;20036;-62
2022/07/26 09:14:50;;;;;;;7.50;3.05;;;;;;;;;;5051247;28;20477;-63
2022/07/26 09:17:18;;;;;;;7.25;2.72;;;;;;;;;;5043652;28;20434;-62
2022/07/26 09:19:45;;;;;;;4.88;2.90;;;;;;;;;;5034315;28;20029;-62
2022/07/26 09:22:14;;;;;;;5.95;3.10;;;;;;;;;;5045962;28;20040;-62
2022/07/26 09:24:45;;;;;;;7.13;3.28;;;;;;;;;;5052108;28;20116;-61
2022/07/26 09:27:13;;;;;;;8.45;3.03;;;;;;;;;;5051937;28;20029;-61
2022/07/26 09:29:46;;;;;;;5.13;2.60;;;;;;;;;;5049023;28;20028;-61
2022/07/26 09:32:21;;;;;;;5.75;2.70;;;;;;;;;;5046145;28;20033;-62
2022/07/26 09:34:52;;;;;;;7.53;2.85;;;;;;;;;;5031036;28;20454;-62
2022/07/26 09:37:18;;;;;;;7.40;3.03;;;;;;;;;;5033243;28;20025;-62
2022/07/26 09:40:02;;;;;;;5.75;2.90;;;;;;;;;;5035944;28;20359;-62
2022/07/26 09:42:27;;;;;;;6.07;2.72;;;;;;;;;;5035567;28;20116;-61
2022/07/26 09:44:54;;;;;;;6.78;2.83;;;;;;;;;;5048612;28;20167;-61
2022/07/26 09:47:20;;;;;;;6.57;2.90;;;;;;;;;;5051849;28;20381;-61
2022/07/26 09:49:46;;;;;;;4.47;2.80;;;;;;;;;;5035288;28;20463;-62
2022/07/26 09:52:20;;;;;;;6.95;3.40;;;;;;;;;;5038294;28;20028;-62
2022/07/26 09:54:48;;;;;;;8.00;4.15;;;;;;;;;;5052198;28;20033;-62
2022/07/26 09:57:18;;;;;;;5.95;3.00;;;;;;;;;;5054438;28;20052;-62
2022/07/26 09:59:45;;;;;;;7.57;2.15;;;;;;;;;;5045076;28;20028;-61
2022/07/26 10:02:12;;;;;;;6.32;2.10;;;;;;;;;;5035446;28;20052;-61
2022/07/26 10:04:42;;;;;;;7.18;2.00;;;;;;;;;;5035127;28;20091;-61
2022/07/26 10:07:09;;;;;;;3.78;1.80;;;;;;;;;;5034850;28;20037;-62
2022/07/26 10:10:03;;;;;;;3.90;1.95;;;;;;;;;;5035174;28;20042;-62
2022/07/26 10:12:32;;;;;;;3.85;2.10;;;;;;;;;;5034856;28;20550;-61
2022/07/26 10:14:57;;;;;;;4.18;1.95;;;;;;;;;;5032314;28;20474;-62
2022/07/26 10:17:26;;;;;;;3.70;1.90;;;;;;;;;;5037083;28;20035;-61
2022/07/26 10:19:54;;;;;;;2.95;1.90;;;;;;;;;;5054536;28;20466;-61
2022/07/26 10:22:51;;;;;;;3.83;1.77;;;;;;;;;;5039084;28;20056;-61
2022/07/26 10:25:17;;;;;;;4.45;1.90;;;;;;;;;;5053032;28;20473;-60
2022/07/26 10:27:45;;;;;;;4.90;2.30;;;;;;;;;;5054962;28;20466;-60
2022/07/26 10:30:22;;;;;;;3.80;2.33;;;;;;;;;;5054087;28;20024;-61
2022/07/26 10:32:53;;;;;;;4.57;2.50;;;;;;;;;;5048232;28;20111;-61
2022/07/26 10:35:35;;;;;;;6.07;2.70;;;;;;;;;;5051322;28;20404;-63
2022/07/26 10:38:07;;;;;;;6.07;3.08;;;;;;;;;;5054241;28;20461;-63
2022/07/26 10:40:34;;;;;;;5.30;3.03;;;;;;;;;;5054498;28;20428;-62
2022/07/26 10:43:14;;;;;;;6.40;3.17;;;;;;;;;;5036483;28;20029;-63
2022/07/26 10:45:41;;;;;;;5.43;3.35;;;;;;;;;;5035008;28;20057;-62
2022/07/26 10:48:13;;;;;;;7.20;3.38;;;;;;;;;;5033740;28;20033;-62
2022/07/26 10:50:41;;;;;;;5.50;3.20;;;;;;;;;;5044031;28;20029;-62
2022/07/26 10:53:08;;;;;;;6.53;3.00;;;;;;;;;;5049689;28;20033;-61
2022/07/26 10:55:48;;;;;;;4.95;3.00;;;;;;;;;;5052753;28;20057;-62
2022/07/26 10:58:13;;;;;;;6.28;3.15;;;;;;;;;;5053937;28;20029;-62
2022/07/26 11:00:39;;;;;;;4.47;2.95;;;;;;;;;;5039600;28;20401;-62
2022/07/26 11:03:05;;;;;;;6.85;3.20;;;;;;;;;;5033855;28;20393;-62
2022/07/26 11:05:33;;;;;;;5.82;3.35;;;;;;;;;;5047700;28;20355;-62
2022/07/26 11:08:08;;;;;;;5.68;2.63;;;;;;;;;;5044289;28;20033;-62
2022/07/26 11:10:38;;;;;;;5.35;2.92;;;;;;;;;;5034191;28;20383;-63
2022/07/26 11:13:17;;;;;;;3.13;2.40;;;;;;;;;;5033787;28;20060;-62
2022/07/26 11:16:00;;;;;;;4.15;2.50;;;;;;;;;;5034160;28;20040;-63
2022/07/26 11:18:29;;;;;;;4.63;2.50;;;;;;;;;;5033542;28;20033;-62
2022/07/26 11:20:56;;;;;;;4.22;2.53;;;;;;;;;;5048803;28;20037;-63
2022/07/26 11:23:33;;;;;;;3.95;2.38;;;;;;;;;;5050398;28;20041;-63
2022/07/26 11:26:01;;;;;;;3.15;1.40;;;;;;;;;;5037566;28;20124;-63
2022/07/26 11:28:26;;;;;;;2.55;1.15;;;;;;;;;;5053951;28;20025;-63
2022/07/26 11:30:58;;;;;;;3.28;1.40;;;;;;;;;;5053231;28;20040;-64
2022/07/26 11:33:42;;;;;;;2.30;1.20;;;;;;;;;;5053825;28;20072;-64
2022/07/26 11:36:08;;;;;;;2.53;1.13;;;;;;;;;;5042686;28;20053;-62
2022/07/26 11:38:53;;;;;;;2.95;1.20;;;;;;;;;;5033909;28;20060;-63
2022/07/26 11:41:24;;;;;;;2.72;1.30;;;;;;;;;;5033795;28;20033;-63
2022/07/26 11:43:51;;;;;;;1.77;1.20;;;;;;;;;;5036878;28;20078;-63
2022/07/26 11:46:18;;;;;;;1.20;1.08;;;;;;;;;;5051731;28;20025;-63
2022/07/26 11:48:48;;;;;;;2.70;1.52;;;;;;;;;;5045728;28;20036;-63
2022/07/26 11:51:16;;;;;;;2.03;1.13;;;;;;;;;;5032697;28;20482;-61
2022/07/26 11:53:42;;;;;;;2.88;1.00;;;;;;;;;;5033839;28;20278;-61
2022/07/26 11:56:16;;;;;;;2.88;1.10;;;;;;;;;;5043443;28;20128;-61
2022/07/26 11:58:46;;;;;;;2.03;1.00;;;;;;;;;;5050162;28;20488;-61
2022/07/26 12:01:13;;;;;;;2.25;1.30;;;;;;;;;;5049544;28;20032;-60
2022/07/26 12:03:40;;;;;;;0.80;0.80;;;;;;;;;;5033450;28;20125;-62
2022/07/26 12:06:08;;;;;;;2.20;1.13;;;;;;;;;;5032905;28;20041;-61
2022/07/26 12:08:46;;;;;;;3.35;1.08;;;;;;;;;;5033246;28;20470;-60
2022/07/26 12:11:14;;;;;;;1.33;0.80;;;;;;;;;;5032462;28;20057;-61
2022/07/26 12:14:00;;;;;;;2.70;1.13;;;;;;;;;;5033236;28;20041;-61
2022/07/26 12:16:46;;;;;;;2.00;1.23;;;;;;;;;;5033096;28;20142;-60
2022/07/26 12:19:17;;;;;;;1.90;1.30;;;;;;;;;;5038052;28;20182;-60
2022/07/26 12:22:07;;;;;;;2.70;1.30;;;;;;;;;;5052615;28;20033;-62
2022/07/26 12:24:51;;;;;;;1.13;1.00;;;;;;;;;;5032918;28;20053;-61
2022/07/26 12:27:22;;;;;;;1.33;1.08;;;;;;;;;;5032140;28;20052;-60
2022/07/26 12:29:54;;;;;;;3.70;1.05;;;;;;;;;;5043951;28;20057;-62
2022/07/26 12:32:34;;;;;;;1.98;1.20;;;;;;;;;;5052440;28;20021;-61
2022/07/26 12:35:03;;;;;;;1.30;0.82;;;;;;;;;;5051688;28;20374;-62
2022/07/26 12:37:30;;;;;;;1.27;1.00;;;;;;;;;;5050151;28;20037;-62
2022/07/26 12:40:08;;;;;;;1.60;1.10;;;;;;;;;;5048208;28;20174;-62
2022/07/26 12:42:37;;;;;;;2.30;1.25;;;;;;;;;;5052556;28;20024;-61
2022/07/26 12:45:08;;;;;;;1.30;0.90;;;;;;;;;;5051772;28;20385;-62
2022/07/26 12:47:38;;;;;;;1.30;1.20;;;;;;;;;;5046641;28;20052;-61
2022/07/26 12:50:05;;;;;;;1.63;1.30;;;;;;;;;;5048585;28;20141;-62
2022/07/26 12:52:32;;;;;;;2.40;1.40;;;;;;;;;;5052671;28;20029;-61
2022/07/26 12:54:58;;;;;;;1.25;1.05;;;;;;;;;;5044604;28;20539;-62
2022/07/26 12:57:23;;;;;;;1.20;1.00;;;;;;;;;;5052411;28;20029;-61
2022/07/26 12:59:49;;;;;;;4.72;1.10;;;;;;;;;;5050694;28;20033;-61
2022/07/26 13:02:19;;;;;;;1.98;1.00;;;;;;;;;;5047982;28;20040;-62
2022/07/26 13:04:45;;;;;;;1.42;0.80;;;;;;;;;;5052201;28;20032;-61
2022/07/26 13:07:10;;;;;;;3.05;1.08;;;;;;;;;;5034122;28;20032;-62
2022/07/26 13:09:36;;;;;;;1.92;1.27;;;;;;;;;;5050555;28;20523;-61
2022/07/26 13:12:03;;;;;;;2.05;1.75;;;;;;;;;;5050995;28;20120;-62
2022/07/26 13:14:31;;;;;;;1.80;1.40;;;;;;;;;;5038533;28;20530;-61
2022/07/26 13:16:56;;;;;;;1.25;1.15;;;;;;;;;;5032233;28;20112;-61
2022/07/26 13:19:22;;;;;;;1.40;1.20;;;;;;;;;;5033620;28;20117;-62
2022/07/26 13:21:47;;;;;;;2.53;1.55;;;;;;;;;;5031653;28;20528;-61
2022/07/26 13:24:12;;;;;;;1.85;1.67;;;;;;;;;;5033105;28;20029;-62
2022/07/26 13:26:38;;;;;;;2.60;1.75;;;;;;;;;;5049935;28;20530;-61
2022/07/26 13:29:03;;;;;;;2.03;1.77;;;;;;;;;;5050996;28;20025;-62
2022/07/26 13:31:30;;;;;;;3.47;1.70;;;;;;;;;;5029016;28;20030;-62
2022/07/26 13:33:56;;;;;;;3.33;1.60;;;;;;;;;;5038249;28;20041;-61
2022/07/26 13:36:21;;;;;;;2.88;1.88;;;;;;;;;;5030659;28;20420;-61
2022/07/26 13:38:47;;;;;;;2.92;2.25;;;;;;;;;;5031392;28;20056;-61
2022/07/26 13:41:12;;;;;;;3.08;2.40;;;;;;;;;;5031101;28;20026;-63
2022/07/26 13:43:37;;;;;;;3.60;2.10;;;;;;;;;;5032097;28;20061;-61
2022/07/26 13:46:03;;;;;;;2.53;1.80;;;;;;;;;;5045808;28;20068;-62
2022/07/26 13:48:28;;;;;;;2.80;1.88;;;;;;;;;;5049004;28;20113;-62
2022/07/26 13:50:56;;;;;;;3.25;2.00;;;;;;;;;;5051368;28;20116;-61
2022/07/26 13:53:22;;;;;;;3.40;2.20;;;;;;;;;;5050909;28;20037;-61
2022/07/26 13:55:48;;;;;;;2.22;2.00;;;;;;;;;;5051741;28;20049;-62
2022/07/26 13:58:13;;;;;;;2.15;1.83;;;;;;;;;;5033490;28;20109;-61
2022/07/26 14:00:39;;;;;;;3.00;1.90;;;;;;;;;;5019945;28;20033;-61
2022/07/26 14:03:05;;;;;;;3.00;1.70;;;;;;;;;;5043534;28;20107;-60
2022/07/26 14:05:30;;;;;;;3.80;1.65;;;;;;;;;;5042309;28;20580;-62
2022/07/26 14:07:55;;;;;;;2.13;1.55;;;;;;;;;;5051756;28;20029;-60
2022/07/26 14:10:22;;;;;;;2.47;1.45;;;;;;;;;;5049128;28;20029;-62
2022/07/26 14:12:48;;;;;;;1.65;1.30;;;;;;;;;;5045967;28;20486;-61
2022/07/26 14:15:13;;;;;;;5.05;1.67;;;;;;;;;;5050682;28;20033;-62
2022/07/26 14:17:39;;;;;;;3.33;1.55;;;;;;;;;;5034241;28;20034;-62
2022/07/26 14:20:05;;;;;;;2.83;1.75;;;;;;;;;;5033028;28;20041;-62
2022/07/26 14:22:31;;;;;;;4.05;1.63;;;;;;;;;;5031658;28;20359;-61
2022/07/26 14:24:56;;;;;;;3.22;1.80;;;;;;;;;;5034698;28;20037;-61
2022/07/26 14:27:22;;;;;;;3.38;1.80;;;;;;;;;;5038632;28;20047;-61
2022/07/26 14:29:48;;;;;;;2.22;1.48;;;;;;;;;;5054794;28;20428;-61
2022/07/26 14:32:13;;;;;;;2.40;1.75;;;;;;;;;;5036501;28;20032;-61
2022/07/26 14:34:39;;;;;;;3.03;1.80;;;;;;;;;;5047340;28;20040;-61
2022/07/26 14:37:05;;;;;;;3.40;1.70;;;;;;;;;;5053847;28;20056;-62
2022/07/26 14:39:30;;;;;;;5.68;1.50;;;;;;;;;;5055122;28;20083;-61
2022/07/26 14:41:56;;;;;;;3.95;1.50;;;;;;;;;;5054797;28;20109;-61